sensor_id;sensor_type;location;lat;lon;timestamp;temperature;humidity
1996;DHT22;38556;47.068;15.408;2023-02-08T00:00:43;-2.10;84.40
1996;DHT22;38556;47.068;15.408;2023-02-08T00:03:10;-2.10;85.00
1996;DHT22;38556;47.068;15.408;2023-02-08T00:05:38;-2.10;84.30
1996;DHT22;38556;47.068;15.408;2023-02-08T00:08:05;-2.40;84.50
1996;DHT22;38556;47.068;15.408;2023-02-08T00:10:34;-2.80;86.00
1996;DHT22;38556;47.068;15.408;2023-02-08T00:13:02;-2.80;86.40
1996;DHT22;38556;47.068;15.408;2023-02-08T00:15:29;-2.80;86.80
1996;DHT22;38556;47.068;15.408;2023-02-08T00:17:56;-2.90;86.90
1996;DHT22;38556;47.068;15.408;2023-02-08T00:20:24;-2.90;87.00
1996;DHT22;38556;47.068;15.408;2023-02-08T00:22:51;-2.80;87.70
1996;DHT22;38556;47.068;15.408;2023-02-08T00:25:19;-2.70;86.80
1996;DHT22;38556;47.068;15.408;2023-02-08T00:27:47;-2.70;86.40
1996;DHT22;38556;47.068;15.408;2023-02-08T00:30:14;-2.70;86.40
1996;DHT22;38556;47.068;15.408;2023-02-08T00:32:42;-2.70;87.00
1996;DHT22;38556;47.068;15.408;2023-02-08T00:35:09;-2.80;86.50
1996;DHT22;38556;47.068;15.408;2023-02-08T00:37:36;-2.80;86.70
1996;DHT22;38556;47.068;15.408;2023-02-08T00:40:04;-2.70;87.50
1996;DHT22;38556;47.068;15.408;2023-02-08T00:42:32;-2.80;87.80
1996;DHT22;38556;47.068;15.408;2023-02-08T00:45:01;-3.00;87.30
1996;DHT22;38556;47.068;15.408;2023-02-08T00:47:28;-3.00;87.90
1996;DHT22;38556;47.068;15.408;2023-02-08T00:49:55;-3.00;88.60
1996;DHT22;38556;47.068;15.408;2023-02-08T00:52:23;-3.10;88.30
1996;DHT22;38556;47.068;15.408;2023-02-08T00:54:50;-2.90;89.20
1996;DHT22;38556;47.068;15.408;2023-02-08T00:57:17;-3.20;88.80
1996;DHT22;38556;47.068;15.408;2023-02-08T00:59:45;-3.30;89.10
1996;DHT22;38556;47.068;15.408;2023-02-08T01:02:13;-3.20;89.00
1996;DHT22;38556;47.068;15.408;2023-02-08T01:04:40;-3.10;89.00
1996;DHT22;38556;47.068;15.408;2023-02-08T01:07:08;-2.90;88.60
1996;DHT22;38556;47.068;15.408;2023-02-08T01:09:35;-2.90;89.10
1996;DHT22;38556;47.068;15.408;2023-02-08T01:12:03;-2.80;88.90
1996;DHT22;38556;47.068;15.408;2023-02-08T01:14:30;-2.80;88.00
1996;DHT22;38556;47.068;15.408;2023-02-08T01:16:57;-2.80;87.60
1996;DHT22;38556;47.068;15.408;2023-02-08T01:19:26;-2.80;88.20
1996;DHT22;38556;47.068;15.408;2023-02-08T01:21:54;-3.10;88.50
1996;DHT22;38556;47.068;15.408;2023-02-08T01:24:21;-3.10;88.40
1996;DHT22;38556;47.068;15.408;2023-02-08T01:26:48;-3.50;88.90
1996;DHT22;38556;47.068;15.408;2023-02-08T01:29:17;-3.40;89.70
1996;DHT22;38556;47.068;15.408;2023-02-08T01:31:44;-3.40;89.00
1996;DHT22;38556;47.068;15.408;2023-02-08T01:34:12;-3.50;89.80
1996;DHT22;38556;47.068;15.408;2023-02-08T01:36:40;-3.60;89.50
1996;DHT22;38556;47.068;15.408;2023-02-08T01:39:09;-3.60;90.10
1996;DHT22;38556;47.068;15.408;2023-02-08T01:41:38;-3.40;89.70
1996;DHT22;38556;47.068;15.408;2023-02-08T01:47:10;-3.40;89.00
1996;DHT22;38556;47.068;15.408;2023-02-08T01:49:37;-3.30;89.10
1996;DHT22;38556;47.068;15.408;2023-02-08T01:52:09;-3.20;88.80
1996;DHT22;38556;47.068;15.408;2023-02-08T01:54:41;-3.30;88.50
1996;DHT22;38556;47.068;15.408;2023-02-08T01:57:09;-3.10;88.30
1996;DHT22;38556;47.068;15.408;2023-02-08T01:59:40;-3.00;88.10
1996;DHT22;38556;47.068;15.408;2023-02-08T02:02:11;-3.00;87.90
1996;DHT22;38556;47.068;15.408;2023-02-08T02:04:39;-3.00;87.70
1996;DHT22;38556;47.068;15.408;2023-02-08T02:07:08;-3.10;87.40
1996;DHT22;38556;47.068;15.408;2023-02-08T02:09:39;-3.10;88.20
1996;DHT22;38556;47.068;15.408;2023-02-08T02:12:08;-3.20;87.60
1996;DHT22;38556;47.068;15.408;2023-02-08T02:14:37;-3.20;87.50
1996;DHT22;38556;47.068;15.408;2023-02-08T02:17:04;-3.40;87.30
1996;DHT22;38556;47.068;15.408;2023-02-08T02:19:49;-3.40;87.90
1996;DHT22;38556;47.068;15.408;2023-02-08T02:22:45;-3.30;88.10
1996;DHT22;38556;47.068;15.408;2023-02-08T02:28:44;-3.20;87.90
1996;DHT22;38556;47.068;15.408;2023-02-08T02:34:17;-3.30;87.80
1996;DHT22;38556;47.068;15.408;2023-02-08T02:36:50;-3.70;88.20
1996;DHT22;38556;47.068;15.408;2023-02-08T02:39:24;-3.70;88.20
1996;DHT22;38556;47.068;15.408;2023-02-08T02:41:59;-3.50;89.00
1996;DHT22;38556;47.068;15.408;2023-02-08T02:44:53;-3.50;88.80
1996;DHT22;38556;47.068;15.408;2023-02-08T02:47:31;-3.40;88.40
1996;DHT22;38556;47.068;15.408;2023-02-08T02:50:05;-3.30;88.10
1996;DHT22;38556;47.068;15.408;2023-02-08T02:52:40;-3.30;88.10
1996;DHT22;38556;47.068;15.408;2023-02-08T02:55:11;-3.20;88.70
1996;DHT22;38556;47.068;15.408;2023-02-08T02:57:41;-3.20;87.80
1996;DHT22;38556;47.068;15.408;2023-02-08T03:00:11;-3.10;87.90
1996;DHT22;38556;47.068;15.408;2023-02-08T03:02:46;-3.10;87.60
1996;DHT22;38556;47.068;15.408;2023-02-08T03:05:14;-3.10;88.20
1996;DHT22;38556;47.068;15.408;2023-02-08T03:08:00;-3.20;87.00
1996;DHT22;38556;47.068;15.408;2023-02-08T03:11:10;-3.20;87.10
1996;DHT22;38556;47.068;15.408;2023-02-08T03:13:53;-3.50;86.90
1996;DHT22;38556;47.068;15.408;2023-02-08T03:16:28;-3.50;87.20
1996;DHT22;38556;47.068;15.408;2023-02-08T03:21:39;-3.40;87.20
1996;DHT22;38556;47.068;15.408;2023-02-08T03:24:17;-3.40;87.00
1996;DHT22;38556;47.068;15.408;2023-02-08T03:26:53;-3.70;86.70
1996;DHT22;38556;47.068;15.408;2023-02-08T03:29:28;-3.70;87.00
1996;DHT22;38556;47.068;15.408;2023-02-08T03:32:07;-3.90;87.00
1996;DHT22;38556;47.068;15.408;2023-02-08T03:34:42;-4.00;87.80
1996;DHT22;38556;47.068;15.408;2023-02-08T03:37:17;-4.10;88.00
1996;DHT22;38556;47.068;15.408;2023-02-08T03:39:46;-4.00;88.40
1996;DHT22;38556;47.068;15.408;2023-02-08T03:42:19;-4.00;89.00
1996;DHT22;38556;47.068;15.408;2023-02-08T03:44:52;-4.10;88.90
1996;DHT22;38556;47.068;15.408;2023-02-08T03:47:22;-4.00;88.60
1996;DHT22;38556;47.068;15.408;2023-02-08T03:49:53;-3.90;89.20
1996;DHT22;38556;47.068;15.408;2023-02-08T03:52:21;-3.80;88.80
1996;DHT22;38556;47.068;15.408;2023-02-08T03:54:51;-3.80;88.30
1996;DHT22;38556;47.068;15.408;2023-02-08T03:57:23;-3.90;87.80
1996;DHT22;38556;47.068;15.408;2023-02-08T03:59:54;-3.80;88.40
1996;DHT22;38556;47.068;15.408;2023-02-08T04:02:25;-3.70;87.60
1996;DHT22;38556;47.068;15.408;2023-02-08T04:04:55;-3.70;88.10
1996;DHT22;38556;47.068;15.408;2023-02-08T04:07:23;-3.70;87.30
1996;DHT22;38556;47.068;15.408;2023-02-08T04:09:51;-3.80;87.90
1996;DHT22;38556;47.068;15.408;2023-02-08T04:12:18;-3.80;88.10
1996;DHT22;38556;47.068;15.408;2023-02-08T04:14:45;-3.70;88.10
1996;DHT22;38556;47.068;15.408;2023-02-08T04:17:12;-3.90;86.70
1996;DHT22;38556;47.068;15.408;2023-02-08T04:19:40;-3.90;86.70
1996;DHT22;38556;47.068;15.408;2023-02-08T04:22:09;-4.00;87.40
1996;DHT22;38556;47.068;15.408;2023-02-08T04:24:36;-4.00;87.90
1996;DHT22;38556;47.068;15.408;2023-02-08T04:27:04;-4.40;87.30
1996;DHT22;38556;47.068;15.408;2023-02-08T04:29:31;-4.40;88.10
1996;DHT22;38556;47.068;15.408;2023-02-08T04:31:58;-4.30;88.80
1996;DHT22;38556;47.068;15.408;2023-02-08T04:34:26;-4.30;88.50
1996;DHT22;38556;47.068;15.408;2023-02-08T04:36:53;-4.70;88.80
1996;DHT22;38556;47.068;15.408;2023-02-08T04:39:22;-4.70;88.90
1996;DHT22;38556;47.068;15.408;2023-02-08T04:41:49;-5.10;89.90
1996;DHT22;38556;47.068;15.408;2023-02-08T04:44:17;-5.00;90.10
1996;DHT22;38556;47.068;15.408;2023-02-08T04:46:44;-5.00;90.30
1996;DHT22;38556;47.068;15.408;2023-02-08T04:49:11;-5.10;90.20
1996;DHT22;38556;47.068;15.408;2023-02-08T04:51:39;-4.90;90.50
1996;DHT22;38556;47.068;15.408;2023-02-08T04:54:06;-4.70;90.50
1996;DHT22;38556;47.068;15.408;2023-02-08T04:56:35;-4.70;90.30
1996;DHT22;38556;47.068;15.408;2023-02-08T04:59:02;-4.50;89.90
1996;DHT22;38556;47.068;15.408;2023-02-08T05:01:29;-4.30;90.10
1996;DHT22;38556;47.068;15.408;2023-02-08T05:03:57;-4.40;89.50
1996;DHT22;38556;47.068;15.408;2023-02-08T05:06:24;-4.30;89.90
1996;DHT22;38556;47.068;15.408;2023-02-08T05:08:51;-4.20;89.30
1996;DHT22;38556;47.068;15.408;2023-02-08T05:11:19;-4.20;89.80
1996;DHT22;38556;47.068;15.408;2023-02-08T05:13:49;-4.20;88.90
1996;DHT22;38556;47.068;15.408;2023-02-08T05:16:16;-4.40;88.40
1996;DHT22;38556;47.068;15.408;2023-02-08T05:18:44;-4.50;88.10
1996;DHT22;38556;47.068;15.408;2023-02-08T05:21:11;-4.50;88.60
1996;DHT22;38556;47.068;15.408;2023-02-08T05:23:39;-4.60;89.30
1996;DHT22;38556;47.068;15.408;2023-02-08T05:26:07;-4.60;90.10
1996;DHT22;38556;47.068;15.408;2023-02-08T05:28:34;-4.70;90.40
1996;DHT22;38556;47.068;15.408;2023-02-08T05:31:09;-4.50;91.70
1996;DHT22;38556;47.068;15.408;2023-02-08T05:33:37;-4.40;92.80
1996;DHT22;38556;47.068;15.408;2023-02-08T05:36:05;-4.30;93.10
1996;DHT22;38556;47.068;15.408;2023-02-08T05:38:32;-4.10;92.80
1996;DHT22;38556;47.068;15.408;2023-02-08T05:41:00;-3.90;92.90
1996;DHT22;38556;47.068;15.408;2023-02-08T05:43:27;-3.80;92.90
1996;DHT22;38556;47.068;15.408;2023-02-08T05:45:55;-3.70;92.80
1996;DHT22;38556;47.068;15.408;2023-02-08T05:48:24;-3.60;93.00
1996;DHT22;38556;47.068;15.408;2023-02-08T05:50:51;-3.50;92.90
1996;DHT22;38556;47.068;15.408;2023-02-08T05:53:19;-3.40;92.70
1996;DHT22;38556;47.068;15.408;2023-02-08T05:55:46;-3.40;92.40
1996;DHT22;38556;47.068;15.408;2023-02-08T05:58:15;-3.40;91.90
1996;DHT22;38556;47.068;15.408;2023-02-08T06:00:42;-3.40;91.40
1996;DHT22;38556;47.068;15.408;2023-02-08T06:03:10;-3.30;91.30
1996;DHT22;38556;47.068;15.408;2023-02-08T06:05:40;-3.10;92.50
1996;DHT22;38556;47.068;15.408;2023-02-08T06:08:08;-2.60;94.00
1996;DHT22;38556;47.068;15.408;2023-02-08T06:10:36;-2.50;94.40
1996;DHT22;38556;47.068;15.408;2023-02-08T06:13:03;-2.40;94.90
1996;DHT22;38556;47.068;15.408;2023-02-08T06:15:31;-2.40;94.40
1996;DHT22;38556;47.068;15.408;2023-02-08T06:17:58;-2.50;94.00
1996;DHT22;38556;47.068;15.408;2023-02-08T06:20:25;-2.30;94.20
1996;DHT22;38556;47.068;15.408;2023-02-08T06:22:55;-2.50;93.40
1996;DHT22;38556;47.068;15.408;2023-02-08T06:25:22;-2.60;92.40
1996;DHT22;38556;47.068;15.408;2023-02-08T06:27:50;-2.60;92.20
1996;DHT22;38556;47.068;15.408;2023-02-08T06:30:17;-2.70;90.80
1996;DHT22;38556;47.068;15.408;2023-02-08T06:32:45;-2.70;91.00
1996;DHT22;38556;47.068;15.408;2023-02-08T06:35:12;-2.70;90.30
1996;DHT22;38556;47.068;15.408;2023-02-08T06:37:39;-2.60;90.10
1996;DHT22;38556;47.068;15.408;2023-02-08T06:40:09;-2.60;88.50
1996;DHT22;38556;47.068;15.408;2023-02-08T06:42:37;-2.60;87.80
1996;DHT22;38556;47.068;15.408;2023-02-08T06:45:04;-2.70;87.30
1996;DHT22;38556;47.068;15.408;2023-02-08T06:47:34;-3.50;86.70
1996;DHT22;38556;47.068;15.408;2023-02-08T06:50:02;-3.60;88.10
1996;DHT22;38556;47.068;15.408;2023-02-08T06:52:29;-3.80;88.70
1996;DHT22;38556;47.068;15.408;2023-02-08T06:54:56;-3.90;90.70
1996;DHT22;38556;47.068;15.408;2023-02-08T06:57:25;-3.90;90.80
1996;DHT22;38556;47.068;15.408;2023-02-08T06:59:52;-3.80;91.10
1996;DHT22;38556;47.068;15.408;2023-02-08T07:02:21;-3.90;91.10
1996;DHT22;38556;47.068;15.408;2023-02-08T07:04:48;-3.40;94.50
1996;DHT22;38556;47.068;15.408;2023-02-08T07:07:16;-3.20;93.70
1996;DHT22;38556;47.068;15.408;2023-02-08T07:09:44;-2.90;93.70
1996;DHT22;38556;47.068;15.408;2023-02-08T07:12:11;-3.00;92.90
1996;DHT22;38556;47.068;15.408;2023-02-08T07:14:41;-2.90;93.20
1996;DHT22;38556;47.068;15.408;2023-02-08T07:17:10;-2.70;93.60
1996;DHT22;38556;47.068;15.408;2023-02-08T07:19:37;-2.70;93.90
1996;DHT22;38556;47.068;15.408;2023-02-08T07:22:05;-2.80;91.80
1996;DHT22;38556;47.068;15.408;2023-02-08T07:24:34;-3.10;91.10
1996;DHT22;38556;47.068;15.408;2023-02-08T07:27:03;-3.30;88.40
1996;DHT22;38556;47.068;15.408;2023-02-08T07:29:31;-3.30;87.80
1996;DHT22;38556;47.068;15.408;2023-02-08T07:32:01;-3.20;88.60
1996;DHT22;38556;47.068;15.408;2023-02-08T07:34:30;-3.00;87.00
1996;DHT22;38556;47.068;15.408;2023-02-08T07:36:57;-2.90;86.90
1996;DHT22;38556;47.068;15.408;2023-02-08T07:39:25;-2.80;86.90
1996;DHT22;38556;47.068;15.408;2023-02-08T07:41:52;-3.40;86.20
1996;DHT22;38556;47.068;15.408;2023-02-08T07:44:19;-2.70;87.30
1996;DHT22;38556;47.068;15.408;2023-02-08T07:46:47;-2.80;86.70
1996;DHT22;38556;47.068;15.408;2023-02-08T07:49:15;-2.70;86.80
1996;DHT22;38556;47.068;15.408;2023-02-08T07:51:43;-2.50;87.00
1996;DHT22;38556;47.068;15.408;2023-02-08T07:54:10;-2.40;87.80
1996;DHT22;38556;47.068;15.408;2023-02-08T07:56:38;-2.40;87.90
1996;DHT22;38556;47.068;15.408;2023-02-08T07:59:05;-2.20;87.40
1996;DHT22;38556;47.068;15.408;2023-02-08T08:01:32;-2.10;87.50
1996;DHT22;38556;47.068;15.408;2023-02-08T08:04:00;-1.90;87.70
1996;DHT22;38556;47.068;15.408;2023-02-08T08:06:28;-1.90;88.30
1996;DHT22;38556;47.068;15.408;2023-02-08T08:08:56;-1.80;87.50
1996;DHT22;38556;47.068;15.408;2023-02-08T08:11:23;-1.70;88.20
1996;DHT22;38556;47.068;15.408;2023-02-08T08:13:51;-1.60;87.30
1996;DHT22;38556;47.068;15.408;2023-02-08T08:16:18;-1.60;87.90
1996;DHT22;38556;47.068;15.408;2023-02-08T08:18:46;-1.50;87.20
1996;DHT22;38556;47.068;15.408;2023-02-08T08:21:14;-1.50;86.60
1996;DHT22;38556;47.068;15.408;2023-02-08T08:23:43;-1.40;87.20
1996;DHT22;38556;47.068;15.408;2023-02-08T08:26:12;-1.50;86.70
1996;DHT22;38556;47.068;15.408;2023-02-08T08:28:40;-1.70;85.60
1996;DHT22;38556;47.068;15.408;2023-02-08T08:31:11;-1.90;86.00
1996;DHT22;38556;47.068;15.408;2023-02-08T08:33:39;-1.70;86.40
1996;DHT22;38556;47.068;15.408;2023-02-08T08:36:07;-1.60;86.50
1996;DHT22;38556;47.068;15.408;2023-02-08T08:38:35;-1.60;87.10
1996;DHT22;38556;47.068;15.408;2023-02-08T08:41:07;-1.40;87.10
1996;DHT22;38556;47.068;15.408;2023-02-08T08:43:35;-1.30;87.20
1996;DHT22;38556;47.068;15.408;2023-02-08T08:46:04;-1.20;87.10
1996;DHT22;38556;47.068;15.408;2023-02-08T08:48:32;-1.20;86.40
1996;DHT22;38556;47.068;15.408;2023-02-08T08:50:59;-1.40;85.90
1996;DHT22;38556;47.068;15.408;2023-02-08T08:53:27;-1.70;86.50
1996;DHT22;38556;47.068;15.408;2023-02-08T08:55:54;-2.10;87.40
1996;DHT22;38556;47.068;15.408;2023-02-08T08:58:23;-2.00;87.30
1996;DHT22;38556;47.068;15.408;2023-02-08T09:00:50;-1.90;88.10
1996;DHT22;38556;47.068;15.408;2023-02-08T09:03:19;-1.90;87.10
1996;DHT22;38556;47.068;15.408;2023-02-08T09:05:46;-1.90;87.40
1996;DHT22;38556;47.068;15.408;2023-02-08T09:08:14;-1.80;86.40
1996;DHT22;38556;47.068;15.408;2023-02-08T09:10:41;-1.70;87.90
1996;DHT22;38556;47.068;15.408;2023-02-08T09:13:08;-1.60;87.50
1996;DHT22;38556;47.068;15.408;2023-02-08T09:15:39;-1.40;88.30
1996;DHT22;38556;47.068;15.408;2023-02-08T09:18:07;-1.20;87.90
1996;DHT22;38556;47.068;15.408;2023-02-08T09:20:36;-1.10;87.50
1996;DHT22;38556;47.068;15.408;2023-02-08T09:23:04;-1.10;86.30
1996;DHT22;38556;47.068;15.408;2023-02-08T09:25:31;-1.00;86.40
1996;DHT22;38556;47.068;15.408;2023-02-08T09:27:59;-0.90;85.30
1996;DHT22;38556;47.068;15.408;2023-02-08T09:30:26;-0.80;85.10
1996;DHT22;38556;47.068;15.408;2023-02-08T09:32:56;-0.90;84.10
1996;DHT22;38556;47.068;15.408;2023-02-08T09:35:23;-0.80;84.60
1996;DHT22;38556;47.068;15.408;2023-02-08T09:37:52;-0.80;83.70
1996;DHT22;38556;47.068;15.408;2023-02-08T09:40:24;-0.60;83.70
1996;DHT22;38556;47.068;15.408;2023-02-08T09:43:02;-0.40;82.90
1996;DHT22;38556;47.068;15.408;2023-02-08T09:45:39;-0.20;82.70
1996;DHT22;38556;47.068;15.408;2023-02-08T09:48:19;-0.20;81.80
1996;DHT22;38556;47.068;15.408;2023-02-08T09:50:50;-0.10;82.10
1996;DHT22;38556;47.068;15.408;2023-02-08T09:53:21;0.00;80.90
1996;DHT22;38556;47.068;15.408;2023-02-08T09:55:54;0.00;81.60
1996;DHT22;38556;47.068;15.408;2023-02-08T09:58:26;-0.20;79.30
1996;DHT22;38556;47.068;15.408;2023-02-08T10:00:55;-0.10;80.60
1996;DHT22;38556;47.068;15.408;2023-02-08T10:03:29;0.00;81.00
1996;DHT22;38556;47.068;15.408;2023-02-08T10:05:58;0.00;80.40
1996;DHT22;38556;47.068;15.408;2023-02-08T10:08:27;-1.00;79.20
1996;DHT22;38556;47.068;15.408;2023-02-08T10:11:01;0.00;81.00
1996;DHT22;38556;47.068;15.408;2023-02-08T10:13:55;0.30;80.60
1996;DHT22;38556;47.068;15.408;2023-02-08T10:16:39;0.40;80.60
1996;DHT22;38556;47.068;15.408;2023-02-08T10:19:23;0.40;80.60
1996;DHT22;38556;47.068;15.408;2023-02-08T10:22:02;0.80;81.00
1996;DHT22;38556;47.068;15.408;2023-02-08T10:27:25;1.10;81.40
1996;DHT22;38556;47.068;15.408;2023-02-08T10:30:17;1.20;80.60
1996;DHT22;38556;47.068;15.408;2023-02-08T10:32:57;1.20;80.70
1996;DHT22;38556;47.068;15.408;2023-02-08T10:35:29;1.20;78.50
1996;DHT22;38556;47.068;15.408;2023-02-08T10:38:22;0.90;75.90
1996;DHT22;38556;47.068;15.408;2023-02-08T10:40:51;1.00;76.40
1996;DHT22;38556;47.068;15.408;2023-02-08T10:43:25;0.80;74.40
1996;DHT22;38556;47.068;15.408;2023-02-08T10:46:00;0.90;75.00
1996;DHT22;38556;47.068;15.408;2023-02-08T10:48:38;0.80;74.20
1996;DHT22;38556;47.068;15.408;2023-02-08T10:51:12;0.80;75.30
1996;DHT22;38556;47.068;15.408;2023-02-08T10:53:40;1.10;83.40
1996;DHT22;38556;47.068;15.408;2023-02-08T10:56:20;1.10;84.50
1996;DHT22;38556;47.068;15.408;2023-02-08T10:58:49;1.20;83.20
1996;DHT22;38556;47.068;15.408;2023-02-08T11:01:17;1.20;81.30
1996;DHT22;38556;47.068;15.408;2023-02-08T11:04:00;1.30;79.60
1996;DHT22;38556;47.068;15.408;2023-02-08T11:06:29;1.10;76.60
1996;DHT22;38556;47.068;15.408;2023-02-08T11:08:56;1.20;75.50
1996;DHT22;38556;47.068;15.408;2023-02-08T11:11:24;1.30;75.90
1996;DHT22;38556;47.068;15.408;2023-02-08T11:14:06;0.10;74.40
1996;DHT22;38556;47.068;15.408;2023-02-08T11:16:34;1.60;75.70
1996;DHT22;38556;47.068;15.408;2023-02-08T11:19:03;1.50;73.60
1996;DHT22;38556;47.068;15.408;2023-02-08T11:21:36;1.60;74.00
1996;DHT22;38556;47.068;15.408;2023-02-08T11:24:23;1.30;70.60
1996;DHT22;38556;47.068;15.408;2023-02-08T11:26:52;-1.40;68.40
1996;DHT22;38556;47.068;15.408;2023-02-08T11:29:23;1.30;70.30
1996;DHT22;38556;47.068;15.408;2023-02-08T11:31:58;0.90;70.30
1996;DHT22;38556;47.068;15.408;2023-02-08T11:34:27;0.60;70.80
1996;DHT22;38556;47.068;15.408;2023-02-08T11:36:57;0.60;72.10
1996;DHT22;38556;47.068;15.408;2023-02-08T11:39:28;1.00;71.80
1996;DHT22;38556;47.068;15.408;2023-02-08T11:41:59;1.10;71.00
1996;DHT22;38556;47.068;15.408;2023-02-08T11:44:30;1.10;70.50
1996;DHT22;38556;47.068;15.408;2023-02-08T11:47:00;1.30;71.30
1996;DHT22;38556;47.068;15.408;2023-02-08T11:49:36;1.40;71.50
1996;DHT22;38556;47.068;15.408;2023-02-08T11:52:17;1.40;72.10
1996;DHT22;38556;47.068;15.408;2023-02-08T11:54:46;1.20;71.70
1996;DHT22;38556;47.068;15.408;2023-02-08T11:57:15;1.40;72.50
1996;DHT22;38556;47.068;15.408;2023-02-08T11:59:44;4.00;74.40
1996;DHT22;38556;47.068;15.408;2023-02-08T12:02:35;1.40;72.30
1996;DHT22;38556;47.068;15.408;2023-02-08T12:05:09;1.50;72.50
1996;DHT22;38556;47.068;15.408;2023-02-08T12:07:58;1.60;72.60
1996;DHT22;38556;47.068;15.408;2023-02-08T12:10:52;1.70;72.50
1996;DHT22;38556;47.068;15.408;2023-02-08T12:13:34;1.50;72.00
1996;DHT22;38556;47.068;15.408;2023-02-08T12:16:21;1.50;72.70
1996;DHT22;38556;47.068;15.408;2023-02-08T12:19:24;1.40;71.50
1996;DHT22;38556;47.068;15.408;2023-02-08T12:22:00;1.70;72.50
1996;DHT22;38556;47.068;15.408;2023-02-08T12:24:35;1.90;72.50
1996;DHT22;38556;47.068;15.408;2023-02-08T12:27:13;1.90;72.50
1996;DHT22;38556;47.068;15.408;2023-02-08T12:29:49;1.90;71.90
1996;DHT22;38556;47.068;15.408;2023-02-08T12:32:36;2.00;72.30
1996;DHT22;38556;47.068;15.408;2023-02-08T12:35:28;2.10;72.50
1996;DHT22;38556;47.068;15.408;2023-02-08T12:38:07;2.20;72.70
1996;DHT22;38556;47.068;15.408;2023-02-08T12:41:01;1.80;70.90
1996;DHT22;38556;47.068;15.408;2023-02-08T12:43:46;1.80;72.00
1996;DHT22;38556;47.068;15.408;2023-02-08T12:49:34;1.90;73.10
1996;DHT22;38556;47.068;15.408;2023-02-08T12:52:16;1.80;82.70
1996;DHT22;38556;47.068;15.408;2023-02-08T12:54:49;1.90;81.60
1996;DHT22;38556;47.068;15.408;2023-02-08T12:57:22;2.20;77.20
1996;DHT22;38556;47.068;15.408;2023-02-08T12:59:55;2.20;77.50
1996;DHT22;38556;47.068;15.408;2023-02-08T13:02:27;2.20;76.00
1996;DHT22;38556;47.068;15.408;2023-02-08T13:04:58;2.20;74.40
1996;DHT22;38556;47.068;15.408;2023-02-08T13:07:30;2.10;73.00
1996;DHT22;38556;47.068;15.408;2023-02-08T13:10:03;1.90;72.80
1996;DHT22;38556;47.068;15.408;2023-02-08T13:12:36;1.90;73.10
1996;DHT22;38556;47.068;15.408;2023-02-08T13:15:11;1.80;72.70
1996;DHT22;38556;47.068;15.408;2023-02-08T13:17:44;1.80;73.40
1996;DHT22;38556;47.068;15.408;2023-02-08T13:20:37;1.70;72.70
1996;DHT22;38556;47.068;15.408;2023-02-08T13:23:15;1.80;73.60
1996;DHT22;38556;47.068;15.408;2023-02-08T13:25:45;1.60;73.00
1996;DHT22;38556;47.068;15.408;2023-02-08T13:28:18;1.70;73.10
1996;DHT22;38556;47.068;15.408;2023-02-08T13:30:54;1.80;73.80
1996;DHT22;38556;47.068;15.408;2023-02-08T13:33:31;1.70;73.10
1996;DHT22;38556;47.068;15.408;2023-02-08T13:35:59;1.80;73.90
1996;DHT22;38556;47.068;15.408;2023-02-08T13:38:29;2.00;72.90
1996;DHT22;38556;47.068;15.408;2023-02-08T13:41:06;2.00;72.40
1996;DHT22;38556;47.068;15.408;2023-02-08T13:43:40;2.20;73.30
1996;DHT22;38556;47.068;15.408;2023-02-08T13:46:10;2.30;73.40
1996;DHT22;38556;47.068;15.408;2023-02-08T13:48:43;2.50;72.80
1996;DHT22;38556;47.068;15.408;2023-02-08T13:54:20;1.30;70.80
1996;DHT22;38556;47.068;15.408;2023-02-08T13:56:50;1.40;71.80
1996;DHT22;38556;47.068;15.408;2023-02-08T13:59:35;1.90;73.20
1996;DHT22;38556;47.068;15.408;2023-02-08T14:02:28;1.90;72.30
1996;DHT22;38556;47.068;15.408;2023-02-08T14:08:18;2.10;71.40
1996;DHT22;38556;47.068;15.408;2023-02-08T14:10:50;2.20;72.50
1996;DHT22;38556;47.068;15.408;2023-02-08T14:13:29;2.40;72.30
1996;DHT22;38556;47.068;15.408;2023-02-08T14:16:30;2.50;71.70
1996;DHT22;38556;47.068;15.408;2023-02-08T14:18:59;2.60;71.40
1996;DHT22;38556;47.068;15.408;2023-02-08T14:21:31;2.70;70.70
1996;DHT22;38556;47.068;15.408;2023-02-08T14:24:01;3.00;71.90
1996;DHT22;38556;47.068;15.408;2023-02-08T14:26:29;2.90;72.40
1996;DHT22;38556;47.068;15.408;2023-02-08T14:28:59;3.20;71.80
1996;DHT22;38556;47.068;15.408;2023-02-08T14:31:42;3.40;72.80
1996;DHT22;38556;47.068;15.408;2023-02-08T14:34:27;3.30;70.30
1996;DHT22;38556;47.068;15.408;2023-02-08T14:37:04;3.90;71.40
1996;DHT22;38556;47.068;15.408;2023-02-08T14:39:33;4.20;72.30
1996;DHT22;38556;47.068;15.408;2023-02-08T14:42:03;4.20;69.70
1996;DHT22;38556;47.068;15.408;2023-02-08T14:45:02;7.70;73.60
1996;DHT22;38556;47.068;15.408;2023-02-08T14:48:16;4.90;68.10
1996;DHT22;38556;47.068;15.408;2023-02-08T14:51:02;4.80;68.30
1996;DHT22;38556;47.068;15.408;2023-02-08T14:53:36;5.00;67.30
1996;DHT22;38556;47.068;15.408;2023-02-08T14:56:14;5.40;68.20
1996;DHT22;38556;47.068;15.408;2023-02-08T14:58:44;5.60;67.40
1996;DHT22;38556;47.068;15.408;2023-02-08T15:01:16;6.10;67.30
1996;DHT22;38556;47.068;15.408;2023-02-08T15:03:47;6.30;65.80
1996;DHT22;38556;47.068;15.408;2023-02-08T15:06:43;6.50;66.00
1996;DHT22;38556;47.068;15.408;2023-02-08T15:09:17;6.80;64.30
1996;DHT22;38556;47.068;15.408;2023-02-08T15:11:57;7.50;74.50
1996;DHT22;38556;47.068;15.408;2023-02-08T15:14:25;8.10;74.00
1996;DHT22;38556;47.068;15.408;2023-02-08T15:16:53;9.00;73.60
1996;DHT22;38556;47.068;15.408;2023-02-08T15:19:27;10.30;64.80
1996;DHT22;38556;47.068;15.408;2023-02-08T15:22:15;11.60;59.80
1996;DHT22;38556;47.068;15.408;2023-02-08T15:24:49;12.50;56.40
1996;DHT22;38556;47.068;15.408;2023-02-08T15:27:22;13.30;55.80
1996;DHT22;38556;47.068;15.408;2023-02-08T15:29:49;13.60;53.50
1996;DHT22;38556;47.068;15.408;2023-02-08T15:32:20;14.20;50.90
1996;DHT22;38556;47.068;15.408;2023-02-08T15:34:51;14.20;51.10
1996;DHT22;38556;47.068;15.408;2023-02-08T15:37:20;14.20;50.40
1996;DHT22;38556;47.068;15.408;2023-02-08T15:39:50;13.20;48.50
1996;DHT22;38556;47.068;15.408;2023-02-08T15:42:21;12.10;49.00
1996;DHT22;38556;47.068;15.408;2023-02-08T15:44:49;11.40;49.30
1996;DHT22;38556;47.068;15.408;2023-02-08T15:47:21;10.90;49.70
1996;DHT22;38556;47.068;15.408;2023-02-08T15:49:53;10.50;50.70
1996;DHT22;38556;47.068;15.408;2023-02-08T15:52:23;9.70;51.40
1996;DHT22;38556;47.068;15.408;2023-02-08T15:54:51;9.40;52.20
1996;DHT22;38556;47.068;15.408;2023-02-08T15:57:30;8.70;53.00
1996;DHT22;38556;47.068;15.408;2023-02-08T15:59:59;8.30;52.90
1996;DHT22;38556;47.068;15.408;2023-02-08T16:02:29;7.80;53.30
1996;DHT22;38556;47.068;15.408;2023-02-08T16:05:00;7.40;53.60
1996;DHT22;38556;47.068;15.408;2023-02-08T16:07:30;7.10;54.20
1996;DHT22;38556;47.068;15.408;2023-02-08T16:09:59;7.00;54.90
1996;DHT22;38556;47.068;15.408;2023-02-08T16:12:27;6.70;55.20
1996;DHT22;38556;47.068;15.408;2023-02-08T16:14:55;6.40;55.50
1996;DHT22;38556;47.068;15.408;2023-02-08T16:17:35;6.00;56.00
1996;DHT22;38556;47.068;15.408;2023-02-08T16:20:21;6.00;56.50
1996;DHT22;38556;47.068;15.408;2023-02-08T16:22:55;5.70;56.80
1996;DHT22;38556;47.068;15.408;2023-02-08T16:25:34;5.50;56.50
1996;DHT22;38556;47.068;15.408;2023-02-08T16:28:03;5.20;57.20